Aeroporto :
LOGIN :

Iscrizione | Disclaimer

   EN    FR    IT 

 










Sommario :    VFR   VFR Marginale   IFR   IFR Intensivo   IFR Molto Intensivo
Visibilità : 
Base nubi : 
>= 8 km
>= 3000ft
5 / 8 km
1000 / 3000 ft
1500m / 5 km
500 / 1000 ft
800 / 1500m
200 / 500 ft
< 800m
< 200 ft
Simboli :   Temporali  Nebbia  Neve Forte  Precipitazioni Forti  Vento > 20 kt
SIGMETs :   Varie  Temporali  Ghiacco  Turbolenza  Onda orograficha  Ceneri Vulcaniche






- Altitudine del aeroporto : 2595 ft
- Codice IATA : SLM


LESA - Salamanca Matacan

ULTIMO METAR :
  • 121030Z 27007KT 230V310 CAVOK 07/03 Q1018

METARs OBSOLETI :
  • 121000Z 32003KT 240V010 CAVOK 07/03 Q1018
  • 120930Z 26003KT 200V320 CAVOK 05/03 Q1018
  • 120900Z 00000KT CAVOK 05/02 Q1018
  • 120830Z 00000KT CAVOK 02/01 Q1018
  • 120800Z 00000KT CAVOK 01/00 Q1018

TAF TAF LESA
Valido dal 12 a 06 ore il 13 a 06 ore UTC


120500Z 1206/1306 32008KT 9999 SCT035 TX12/1215Z TNM01/1206Z
PROB30
TEMPO 1206/1208 2000 BR BKN005
BECMG 1208/1209 26012KT
PROB30
TEMPO 1215/1224 24012KT 3000 RADZ BR BKN008
BECMG 1216/1217 24012KT
TEMPO 1221/1306 24016KT 3000 RADZ BR BKN008



MetMap, La meteo Aeronautica in un colpo d'occhio ! - Copyright ORBIFLY Dicembre 2007 - Disclaimer

ORBIFLY MET'MAP TEAM :

Programmazione e sviluppo : Alexandra Zaïnal
Concezione e sviluppo : Baudouin d'Aumeries
Co-Programmazione e sviluppo : Marc-Olivier Méhu
Supporto tecnico e logistico : Manuel Goepfert
Aiuto per la traduzione : Arnaldo La Scala

Contatto : metmap@orbifly.com




FONTI E CREDITI :

   NOAA